Time;durP1;ratioP1;P1;durP2;ratioP2;P2;SDS_P1;SDS_P2;PMS_P1;PMS_P2;Temp;Humidity;BMP_temperature;BMP_pressure;BME280_temperature;BME280_humidity;BME280_pressure;Samples;Min_cycle;Max_cycle;Signal;HPM_P1;HPM_P2
2022/06/29 00:01:53;;;;;;;10.65;8.73;;;;;;;;;;4980794;28;20023;-59
2022/06/29 00:04:19;;;;;;;9.70;8.90;;;;;;;;;;4982798;28;20134;-59
2022/06/29 00:06:44;;;;;;;10.27;8.82;;;;;;;;;;4984155;28;20133;-60
2022/06/29 00:09:09;;;;;;;9.80;9.00;;;;;;;;;;4980415;28;20064;-60
2022/06/29 00:11:34;;;;;;;9.25;8.55;;;;;;;;;;4980870;28;20110;-59
2022/06/29 00:14:00;;;;;;;9.82;9.02;;;;;;;;;;4984678;28;20432;-60
2022/06/29 00:16:25;;;;;;;10.25;9.30;;;;;;;;;;4983226;28;20435;-59
2022/06/29 00:18:50;;;;;;;10.40;9.35;;;;;;;;;;4980481;28;20154;-59
2022/06/29 00:21:15;;;;;;;10.32;9.30;;;;;;;;;;4980737;28;20085;-59
2022/06/29 00:23:41;;;;;;;10.80;9.85;;;;;;;;;;4980833;28;20038;-60
2022/06/29 00:26:07;;;;;;;9.90;9.10;;;;;;;;;;4983549;28;20060;-60
2022/06/29 00:28:32;;;;;;;10.38;9.45;;;;;;;;;;4981796;28;20030;-60
2022/06/29 00:30:57;;;;;;;10.07;9.23;;;;;;;;;;4981753;28;20177;-60
2022/06/29 00:33:22;;;;;;;11.52;10.50;;;;;;;;;;4983580;28;20050;-60
2022/06/29 00:35:48;;;;;;;11.45;10.40;;;;;;;;;;4983160;28;20034;-60
2022/06/29 00:38:14;;;;;;;10.80;10.02;;;;;;;;;;4979570;28;20038;-60
2022/06/29 00:40:39;;;;;;;10.65;9.80;;;;;;;;;;4981263;28;20065;-59
2022/06/29 00:43:04;;;;;;;11.07;9.95;;;;;;;;;;4983651;28;20037;-59
2022/06/29 00:45:29;;;;;;;10.82;9.93;;;;;;;;;;4982400;28;20030;-59
2022/06/29 00:47:55;;;;;;;11.77;10.48;;;;;;;;;;4980502;28;20552;-59
2022/06/29 00:50:20;;;;;;;11.07;10.18;;;;;;;;;;4981445;28;20030;-59
2022/06/29 00:52:46;;;;;;;11.20;10.05;;;;;;;;;;4983895;28;20037;-60
2022/06/29 00:55:14;;;;;;;11.80;10.82;;;;;;;;;;4982036;28;20038;-59
2022/06/29 00:57:42;;;;;;;12.50;10.57;;;;;;;;;;4979990;28;20469;-59
2022/06/29 01:00:08;;;;;;;12.23;10.70;;;;;;;;;;4982786;28;20407;-60
2022/06/29 01:02:33;;;;;;;11.00;10.20;;;;;;;;;;4980637;28;20592;-58
2022/06/29 01:04:59;;;;;;;11.48;10.38;;;;;;;;;;4980837;28;20034;-59
2022/06/29 01:07:26;;;;;;;11.25;10.20;;;;;;;;;;4980409;28;20034;-59
2022/06/29 01:09:51;;;;;;;11.07;10.20;;;;;;;;;;4982976;28;20074;-59
2022/06/29 01:12:16;;;;;;;12.73;10.77;;;;;;;;;;4983012;28;20022;-59
2022/06/29 01:14:43;;;;;;;11.40;10.40;;;;;;;;;;4979297;28;20039;-60
2022/06/29 01:17:08;;;;;;;10.88;9.90;;;;;;;;;;4979943;28;20093;-59
2022/06/29 01:19:34;;;;;;;10.45;9.55;;;;;;;;;;4980996;28;20030;-59
2022/06/29 01:22:06;;;;;;;11.52;10.43;;;;;;;;;;4986054;28;20065;-59
2022/06/29 01:24:31;;;;;;;11.35;10.55;;;;;;;;;;4984156;28;20472;-59
2022/06/29 01:26:56;;;;;;;11.00;10.00;;;;;;;;;;4982248;28;20041;-59
2022/06/29 01:29:22;;;;;;;11.02;10.15;;;;;;;;;;4984142;28;20347;-60
2022/06/29 01:31:52;;;;;;;10.85;9.80;;;;;;;;;;4987317;28;20109;-59
2022/06/29 01:34:18;;;;;;;12.13;10.88;;;;;;;;;;4984160;28;20019;-59
2022/06/29 01:36:43;;;;;;;11.30;10.30;;;;;;;;;;4985122;28;20038;-59
2022/06/29 01:39:08;;;;;;;12.10;10.98;;;;;;;;;;4987341;28;20033;-62
2022/06/29 01:41:33;;;;;;;20.05;11.00;;;;;;;;;;4985734;28;20038;-59
2022/06/29 01:43:59;;;;;;;11.60;10.50;;;;;;;;;;4983350;28;20086;-58
2022/06/29 01:46:24;;;;;;;11.30;10.35;;;;;;;;;;4985126;28;20034;-59
2022/06/29 01:48:50;;;;;;;10.43;9.50;;;;;;;;;;4986750;28;20030;-59
2022/06/29 01:51:15;;;;;;;11.32;10.35;;;;;;;;;;4985128;28;20042;-58
2022/06/29 01:53:40;;;;;;;12.35;11.25;;;;;;;;;;4983400;28;20030;-61
2022/06/29 01:56:06;;;;;;;11.70;10.73;;;;;;;;;;4985536;28;20061;-59
2022/06/29 01:58:32;;;;;;;13.45;12.25;;;;;;;;;;4984766;28;20026;-59
2022/06/29 02:00:57;;;;;;;12.73;11.63;;;;;;;;;;4982477;28;20034;-59
2022/06/29 02:03:22;;;;;;;12.73;11.63;;;;;;;;;;4983294;28;20062;-59
2022/06/29 02:05:47;;;;;;;12.68;11.57;;;;;;;;;;4983479;28;20027;-59
2022/06/29 02:08:13;;;;;;;12.27;11.18;;;;;;;;;;4984429;28;20050;-59
2022/06/29 02:10:38;;;;;;;12.35;11.25;;;;;;;;;;4984261;28;20026;-59
2022/06/29 02:13:04;;;;;;;13.23;11.98;;;;;;;;;;4981473;28;20397;-58
2022/06/29 02:15:29;;;;;;;12.20;11.20;;;;;;;;;;4984361;28;20117;-59
2022/06/29 02:17:54;;;;;;;12.98;11.88;;;;;;;;;;4986150;28;20479;-59
2022/06/29 02:20:20;;;;;;;13.32;12.05;;;;;;;;;;4983843;28;20544;-60
2022/06/29 02:22:46;;;;;;;12.35;11.35;;;;;;;;;;4982958;28;20057;-60
2022/06/29 02:25:11;;;;;;;12.57;11.57;;;;;;;;;;4984337;28;20030;-59
2022/06/29 02:27:40;;;;;;;12.55;11.32;;;;;;;;;;4985600;28;20041;-59
2022/06/29 02:30:06;;;;;;;12.55;11.55;;;;;;;;;;4984133;28;20023;-60
2022/06/29 02:35:15;;;;;;;12.35;11.25;;;;;;;;;;4984885;28;20037;-61
2022/06/29 02:37:40;;;;;;;13.05;12.00;;;;;;;;;;4983124;28;20034;-60
2022/06/29 02:40:06;;;;;;;12.13;11.07;;;;;;;;;;4982922;28;20085;-60
2022/06/29 02:42:31;;;;;;;13.32;12.07;;;;;;;;;;4983876;28;20476;-60
2022/06/29 02:44:57;;;;;;;13.32;12.23;;;;;;;;;;4985773;28;20077;-60
2022/06/29 02:47:22;;;;;;;12.73;11.43;;;;;;;;;;4984672;28;20186;-59
2022/06/29 02:49:47;;;;;;;12.98;11.88;;;;;;;;;;4983301;28;20034;-60
2022/06/29 02:52:12;;;;;;;13.40;12.25;;;;;;;;;;4984321;28;20435;-60
2022/06/29 02:54:37;;;;;;;13.60;12.30;;;;;;;;;;4985127;28;20038;-60
2022/06/29 02:57:03;;;;;;;12.55;11.52;;;;;;;;;;4984235;28;20034;-59
2022/06/29 02:59:28;;;;;;;11.73;10.73;;;;;;;;;;4983228;28;20802;-60
2022/06/29 03:01:54;;;;;;;13.05;11.95;;;;;;;;;;4983941;28;20036;-60
2022/06/29 03:04:19;;;;;;;13.05;11.95;;;;;;;;;;4985348;28;20427;-60
2022/06/29 03:06:44;;;;;;;13.00;11.80;;;;;;;;;;4983646;28;20038;-60
2022/06/29 03:09:10;;;;;;;13.45;12.18;;;;;;;;;;4982656;28;20062;-61
2022/06/29 03:11:35;;;;;;;14.25;12.85;;;;;;;;;;4983520;28;20556;-60
2022/06/29 03:14:00;;;;;;;13.80;12.50;;;;;;;;;;4985142;28;20030;-60
2022/06/29 03:16:26;;;;;;;12.73;11.63;;;;;;;;;;4982989;28;20531;-60
2022/06/29 03:18:51;;;;;;;13.35;12.07;;;;;;;;;;4982541;28;20042;-60
2022/06/29 03:21:17;;;;;;;12.48;11.35;;;;;;;;;;4984640;28;20434;-60
2022/06/29 03:23:43;;;;;;;12.45;11.45;;;;;;;;;;4984679;28;20109;-59
2022/06/29 03:26:08;;;;;;;13.15;11.95;;;;;;;;;;4982251;28;20562;-60
2022/06/29 03:28:33;;;;;;;13.65;12.23;;;;;;;;;;4982217;28;20062;-60
2022/06/29 03:30:58;;;;;;;12.85;11.73;;;;;;;;;;4980649;28;20041;-60
2022/06/29 03:33:24;;;;;;;12.32;11.18;;;;;;;;;;4981967;28;20468;-60
2022/06/29 03:35:49;;;;;;;12.68;11.68;;;;;;;;;;4982133;28;20054;-60
2022/06/29 03:38:14;;;;;;;14.43;13.05;;;;;;;;;;4983092;28;20472;-60
2022/06/29 03:40:39;;;;;;;13.23;12.13;;;;;;;;;;4981519;28;20018;-59
2022/06/29 03:43:05;;;;;;;14.00;12.77;;;;;;;;;;4981692;28;20627;-60
2022/06/29 03:45:30;;;;;;;14.45;13.15;;;;;;;;;;4981442;28;20084;-60
2022/06/29 03:47:55;;;;;;;13.73;12.45;;;;;;;;;;4982979;28;20034;-60
2022/06/29 03:50:21;;;;;;;14.70;13.23;;;;;;;;;;4981636;28;20404;-60
2022/06/29 03:52:46;;;;;;;14.32;12.82;;;;;;;;;;4982557;28;20069;-60
2022/06/29 03:55:11;;;;;;;13.95;12.57;;;;;;;;;;4984246;28;20457;-60
2022/06/29 03:57:36;;;;;;;15.13;13.48;;;;;;;;;;4982535;28;20030;-60
2022/06/29 04:00:03;;;;;;;16.35;14.80;;;;;;;;;;4979897;28;20343;-60
2022/06/29 04:02:28;;;;;;;17.10;15.40;;;;;;;;;;4970829;28;20585;-60
2022/06/29 04:04:53;;;;;;;16.13;14.55;;;;;;;;;;4982619;28;20037;-60
2022/06/29 04:07:19;;;;;;;15.48;13.93;;;;;;;;;;4983347;28;20396;-60
2022/06/29 04:09:44;;;;;;;15.15;13.75;;;;;;;;;;4980674;28;20051;-60
2022/06/29 04:12:09;;;;;;;14.05;12.75;;;;;;;;;;4981728;28;20477;-60
2022/06/29 04:14:35;;;;;;;16.48;14.93;;;;;;;;;;4981595;28;20462;-60
2022/06/29 04:17:00;;;;;;;16.17;14.77;;;;;;;;;;4981471;28;20070;-60
2022/06/29 04:19:26;;;;;;;14.23;12.88;;;;;;;;;;4979674;28;20064;-60
2022/06/29 04:21:51;;;;;;;15.73;14.02;;;;;;;;;;4980794;28;20030;-60
2022/06/29 04:24:16;;;;;;;17.48;15.82;;;;;;;;;;4981244;28;20473;-59
2022/06/29 04:26:42;;;;;;;17.50;15.82;;;;;;;;;;4981742;28;20103;-60
2022/06/29 04:29:07;;;;;;;13.93;12.73;;;;;;;;;;4980808;28;20054;-59
2022/06/29 04:31:33;;;;;;;14.75;13.32;;;;;;;;;;4983254;28;20455;-59
2022/06/29 04:33:58;;;;;;;14.10;12.73;;;;;;;;;;4984232;28;20066;-58
2022/06/29 04:36:24;;;;;;;14.40;13.00;;;;;;;;;;4981440;28;20499;-58
2022/06/29 04:38:49;;;;;;;12.18;11.13;;;;;;;;;;4980124;28;20030;-58
2022/06/29 04:41:15;;;;;;;12.60;11.50;;;;;;;;;;4983192;28;20030;-59
2022/06/29 04:43:41;;;;;;;12.75;11.65;;;;;;;;;;4983736;28;20030;-58
2022/06/29 04:46:22;;;;;;;13.13;11.85;;;;;;;;;;4980420;28;20100;-59
2022/06/29 04:48:53;;;;;;;12.63;11.52;;;;;;;;;;4982300;28;20030;-60
2022/06/29 04:51:18;;;;;;;12.57;11.32;;;;;;;;;;4982030;28;20106;-61
2022/06/29 04:53:47;;;;;;;12.57;11.38;;;;;;;;;;4980958;28;20190;-60
2022/06/29 04:56:13;;;;;;;11.40;10.50;;;;;;;;;;4979838;28;20413;-61
2022/06/29 04:58:38;;;;;;;15.48;12.18;;;;;;;;;;4981469;28;20048;-60
2022/06/29 05:01:04;;;;;;;12.48;11.13;;;;;;;;;;4983768;28;20550;-63
2022/06/29 05:03:29;;;;;;;11.93;10.82;;;;;;;;;;4980389;28;20579;-60
2022/06/29 05:05:55;;;;;;;13.52;11.48;;;;;;;;;;4980465;28;20053;-60
2022/06/29 05:08:20;;;;;;;11.73;10.57;;;;;;;;;;4980900;28;20070;-60
2022/06/29 05:10:46;;;;;;;12.73;11.68;;;;;;;;;;4983277;28;20388;-62
2022/06/29 05:13:11;;;;;;;12.90;11.68;;;;;;;;;;4981310;28;20381;-65
2022/06/29 05:15:39;;;;;;;11.02;10.18;;;;;;;;;;4980466;28;20042;-67
2022/06/29 05:18:05;;;;;;;12.18;11.18;;;;;;;;;;4982382;28;20038;-66
2022/06/29 05:20:30;;;;;;;12.05;11.05;;;;;;;;;;4982608;28;20392;-68
2022/06/29 05:22:56;;;;;;;12.15;11.05;;;;;;;;;;4981105;28;20030;-65
2022/06/29 05:25:21;;;;;;;13.13;11.77;;;;;;;;;;4979996;28;20070;-65
2022/06/29 05:27:46;;;;;;;11.75;10.45;;;;;;;;;;4982178;28;20069;-65
2022/06/29 05:30:12;;;;;;;11.68;10.48;;;;;;;;;;4982843;28;20027;-67
2022/06/29 05:32:37;;;;;;;12.15;11.05;;;;;;;;;;4981019;28;20555;-65
2022/06/29 05:35:03;;;;;;;12.25;11.13;;;;;;;;;;4980271;28;20038;-67
2022/06/29 05:37:28;;;;;;;11.63;10.27;;;;;;;;;;4982868;28;20404;-66
2022/06/29 05:39:53;;;;;;;12.40;11.27;;;;;;;;;;4981297;28;20499;-66
2022/06/29 05:42:18;;;;;;;12.52;11.45;;;;;;;;;;4980066;28;20987;-68
2022/06/29 05:44:44;;;;;;;11.57;10.68;;;;;;;;;;4980448;28;20066;-66
2022/06/29 05:47:09;;;;;;;10.65;9.80;;;;;;;;;;4980466;28;20780;-67
2022/06/29 05:49:35;;;;;;;11.75;10.93;;;;;;;;;;4978400;28;20030;-66
2022/06/29 05:52:00;;;;;;;13.18;12.05;;;;;;;;;;4979945;28;20045;-66
2022/06/29 05:54:26;;;;;;;13.20;12.05;;;;;;;;;;4980605;28;20028;-66
2022/06/29 05:56:51;;;;;;;15.07;11.23;;;;;;;;;;4982614;28;20035;-66
2022/06/29 05:59:16;;;;;;;11.20;10.20;;;;;;;;;;4982333;28;20043;-65
2022/06/29 06:01:41;;;;;;;13.80;12.35;;;;;;;;;;4979650;28;20070;-67
2022/06/29 06:04:06;;;;;;;13.95;11.57;;;;;;;;;;4981040;28;20484;-66
2022/06/29 06:06:32;;;;;;;13.15;11.45;;;;;;;;;;4983479;28;20042;-67
2022/06/29 06:08:57;;;;;;;11.90;10.88;;;;;;;;;;4985069;28;20509;-67
2022/06/29 06:11:24;;;;;;;13.20;11.93;;;;;;;;;;4983575;28;20030;-66
2022/06/29 06:13:49;;;;;;;12.40;11.48;;;;;;;;;;4997965;28;20022;-67
2022/06/29 06:16:14;;;;;;;11.80;10.80;;;;;;;;;;4982976;28;20435;-66
2022/06/29 06:18:39;;;;;;;12.65;11.60;;;;;;;;;;4982834;28;20042;-66
2022/06/29 06:21:05;;;;;;;13.50;12.23;;;;;;;;;;4983563;28;20033;-67
2022/06/29 06:23:30;;;;;;;12.25;11.35;;;;;;;;;;4984626;28;20030;-65
2022/06/29 06:25:55;;;;;;;12.43;11.45;;;;;;;;;;4985443;28;20038;-66
2022/06/29 06:28:21;;;;;;;17.88;11.32;;;;;;;;;;4982914;28;20041;-66
2022/06/29 06:30:46;;;;;;;12.63;11.52;;;;;;;;;;4981736;28;20038;-65
2022/06/29 06:33:11;;;;;;;12.23;11.20;;;;;;;;;;4983151;28;20476;-65
2022/06/29 06:35:36;;;;;;;14.13;12.85;;;;;;;;;;4982002;28;20106;-67
2022/06/29 06:38:02;;;;;;;11.48;10.45;;;;;;;;;;4982337;28;20046;-66
2022/06/29 06:43:11;;;;;;;12.70;11.63;;;;;;;;;;4983602;28;20093;-65
2022/06/29 06:45:36;;;;;;;12.48;11.48;;;;;;;;;;4985116;28;20042;-65
2022/06/29 06:48:02;;;;;;;13.40;12.23;;;;;;;;;;4982389;28;20104;-64
2022/06/29 06:50:27;;;;;;;12.10;11.10;;;;;;;;;;4983047;28;20022;-66
2022/06/29 06:52:52;;;;;;;11.82;10.88;;;;;;;;;;4985928;28;20527;-65
2022/06/29 06:55:17;;;;;;;12.93;11.75;;;;;;;;;;4985093;28;20027;-65
2022/06/29 06:57:43;;;;;;;12.75;11.70;;;;;;;;;;4982152;28;20061;-64
2022/06/29 07:00:09;;;;;;;12.25;11.15;;;;;;;;;;4982328;28;20032;-63
2022/06/29 07:02:35;;;;;;;13.52;12.27;;;;;;;;;;4983897;28;20040;-62
2022/06/29 07:05:00;;;;;;;13.60;12.40;;;;;;;;;;4982130;28;20197;-62
2022/06/29 07:07:25;;;;;;;12.80;11.55;;;;;;;;;;4982551;28;20037;-62
2022/06/29 07:09:51;;;;;;;13.30;11.98;;;;;;;;;;4982209;28;20137;-63
2022/06/29 07:12:16;;;;;;;12.45;11.43;;;;;;;;;;4980527;28;20573;-62
2022/06/29 07:14:41;;;;;;;13.52;12.07;;;;;;;;;;4981352;28;20038;-62
2022/06/29 07:17:06;;;;;;;19.88;13.18;;;;;;;;;;4981499;28;20034;-63
2022/06/29 07:19:32;;;;;;;13.38;12.10;;;;;;;;;;4981036;28;20053;-62
2022/06/29 07:21:57;;;;;;;12.82;11.82;;;;;;;;;;4983771;28;20128;-62
2022/06/29 07:24:22;;;;;;;12.50;11.27;;;;;;;;;;4983932;28;20037;-64
2022/06/29 07:26:47;;;;;;;11.35;10.35;;;;;;;;;;4981475;28;20034;-63
2022/06/29 07:29:13;;;;;;;11.73;10.73;;;;;;;;;;4981294;28;20026;-62
2022/06/29 07:31:38;;;;;;;12.73;11.68;;;;;;;;;;4985162;28;20156;-61
2022/06/29 07:34:04;;;;;;;12.02;11.05;;;;;;;;;;4983328;28;20084;-61
2022/06/29 07:36:29;;;;;;;12.45;11.25;;;;;;;;;;4981959;28;20491;-61
2022/06/29 07:38:55;;;;;;;13.27;11.20;;;;;;;;;;4982435;28;20399;-61
2022/06/29 07:41:20;;;;;;;11.40;10.30;;;;;;;;;;4984941;28;20025;-61
2022/06/29 07:43:46;;;;;;;11.98;10.93;;;;;;;;;;4981983;28;20445;-61
2022/06/29 07:46:11;;;;;;;12.40;11.30;;;;;;;;;;4979461;28;20656;-61
2022/06/29 07:48:36;;;;;;;12.57;11.63;;;;;;;;;;4983421;28;20038;-62
2022/06/29 07:51:02;;;;;;;12.85;11.57;;;;;;;;;;4984661;28;20043;-61
2022/06/29 07:53:27;;;;;;;11.73;10.68;;;;;;;;;;4984131;28;20022;-61
2022/06/29 07:55:53;;;;;;;12.93;11.88;;;;;;;;;;4982177;28;20046;-61
2022/06/29 07:58:18;;;;;;;13.88;12.85;;;;;;;;;;4984248;28;20030;-61
2022/06/29 08:00:44;;;;;;;12.18;11.27;;;;;;;;;;4984170;28;20117;-62
2022/06/29 08:03:10;;;;;;;12.45;11.15;;;;;;;;;;4981733;28;20478;-63
2022/06/29 08:05:35;;;;;;;12.65;11.45;;;;;;;;;;4981476;28;20030;-62
2022/06/29 08:08:01;;;;;;;11.55;10.45;;;;;;;;;;4984475;28;20030;-63
2022/06/29 08:10:26;;;;;;;11.20;10.30;;;;;;;;;;4983683;28;20037;-61
2022/06/29 08:12:52;;;;;;;12.40;11.20;;;;;;;;;;4980574;28;20541;-64
2022/06/29 08:15:17;;;;;;;11.20;9.93;;;;;;;;;;4981999;28;20169;-64
2022/06/29 08:17:43;;;;;;;13.75;10.38;;;;;;;;;;4986119;28;20073;-64
2022/06/29 08:20:08;;;;;;;12.55;11.43;;;;;;;;;;4984058;28;20108;-64
2022/06/29 08:22:34;;;;;;;12.00;11.02;;;;;;;;;;4980914;28;20453;-64
2022/06/29 08:24:59;;;;;;;11.63;10.60;;;;;;;;;;4981739;28;20508;-63
2022/06/29 08:27:24;;;;;;;11.10;10.30;;;;;;;;;;4982143;28;20561;-64
2022/06/29 08:29:50;;;;;;;12.02;10.35;;;;;;;;;;4980890;28;20026;-63
2022/06/29 08:32:15;;;;;;;10.90;9.90;;;;;;;;;;4979307;28;20022;-63
2022/06/29 08:34:40;;;;;;;12.15;11.02;;;;;;;;;;4981540;28;20041;-62
2022/06/29 08:37:06;;;;;;;11.65;10.75;;;;;;;;;;4983866;28;20076;-63
2022/06/29 08:39:32;;;;;;;10.50;9.65;;;;;;;;;;4982142;28;20037;-63
2022/06/29 08:42:00;;;;;;;11.60;10.77;;;;;;;;;;4979611;28;20037;-58
2022/06/29 08:44:25;;;;;;;12.15;11.10;;;;;;;;;;4981640;28;20030;-62
2022/06/29 08:46:50;;;;;;;10.95;10.05;;;;;;;;;;4983713;28;20472;-60
2022/06/29 08:49:15;;;;;;;10.88;9.50;;;;;;;;;;4981824;28;20141;-60
2022/06/29 08:51:41;;;;;;;10.38;9.57;;;;;;;;;;4979992;28;20377;-60
2022/06/29 08:54:07;;;;;;;11.93;10.75;;;;;;;;;;4982821;28;20042;-60
2022/06/29 08:56:34;;;;;;;10.77;9.95;;;;;;;;;;4983934;28;20045;-60
2022/06/29 08:59:01;;;;;;;11.88;10.98;;;;;;;;;;4983297;28;20035;-60
2022/06/29 09:01:28;;;;;;;10.88;10.07;;;;;;;;;;4980562;28;20133;-60
2022/06/29 09:03:54;;;;;;;11.82;10.63;;;;;;;;;;4983260;28;20487;-60
2022/06/29 09:06:19;;;;;;;11.45;10.38;;;;;;;;;;4985334;28;20145;-59
2022/06/29 09:08:44;;;;;;;10.85;9.98;;;;;;;;;;4981072;28;20058;-61
2022/06/29 09:11:28;;;;;;;12.38;10.32;;;;;;;;;;4978486;28;20027;-59
2022/06/29 09:14:13;;;;;;;11.07;10.02;;;;;;;;;;4982559;28;20031;-60
2022/06/29 09:16:51;;;;;;;10.77;8.68;;;;;;;;;;4981935;28;20200;-60
2022/06/29 09:19:16;;;;;;;10.45;9.65;;;;;;;;;;4980489;28;20443;-60
2022/06/29 09:21:45;;;;;;;10.90;10.00;;;;;;;;;;4979476;28;20026;-58
2022/06/29 09:24:14;;;;;;;11.85;10.75;;;;;;;;;;4982715;28;20022;-60
2022/06/29 09:26:39;;;;;;;10.23;9.48;;;;;;;;;;4979755;28;20125;-61
2022/06/29 09:29:17;;;;;;;11.93;10.68;;;;;;;;;;4979112;28;20029;-61
2022/06/29 09:31:43;;;;;;;11.20;10.20;;;;;;;;;;4980999;28;20033;-61
2022/06/29 09:34:18;;;;;;;10.07;9.18;;;;;;;;;;4981892;28;20457;-62
2022/06/29 09:36:55;;;;;;;13.05;10.48;;;;;;;;;;4979468;28;20042;-62
2022/06/29 09:39:34;;;;;;;12.18;10.75;;;;;;;;;;4993477;28;20451;-60
2022/06/29 09:42:00;;;;;;;10.52;9.60;;;;;;;;;;4982719;28;20027;-60
2022/06/29 09:44:25;;;;;;;12.10;10.38;;;;;;;;;;4984405;28;20436;-60
2022/06/29 09:46:54;;;;;;;10.95;9.93;;;;;;;;;;4982215;28;20030;-60
2022/06/29 09:49:20;;;;;;;11.18;9.95;;;;;;;;;;4983063;28;20112;-60
2022/06/29 09:51:48;;;;;;;10.57;9.68;;;;;;;;;;4985151;28;20437;-61
2022/06/29 09:54:14;;;;;;;13.82;10.27;;;;;;;;;;4984495;28;20552;-60
2022/06/29 09:56:45;;;;;;;10.60;9.65;;;;;;;;;;4982515;28;20041;-60
2022/06/29 09:59:11;;;;;;;9.90;8.98;;;;;;;;;;4983382;28;20488;-60
2022/06/29 10:04:20;;;;;;;10.93;9.87;;;;;;;;;;4983072;28;20037;-62
2022/06/29 10:06:46;;;;;;;10.85;9.32;;;;;;;;;;4983150;28;20432;-60
2022/06/29 10:09:11;;;;;;;10.57;9.65;;;;;;;;;;4984819;28;20065;-61
2022/06/29 10:14:50;;;;;;;10.73;9.82;;;;;;;;;;4982571;28;20448;-61
2022/06/29 10:17:27;;;;;;;11.20;10.32;;;;;;;;;;4980772;28;20034;-61
2022/06/29 10:19:58;;;;;;;10.35;8.80;;;;;;;;;;4986563;28;20037;-61
2022/06/29 10:22:23;;;;;;;11.80;10.70;;;;;;;;;;4984939;28;20448;-61
2022/06/29 10:25:05;;;;;;;11.88;10.43;;;;;;;;;;4982881;28;20057;-61
2022/06/29 10:27:31;;;;;;;11.05;10.02;;;;;;;;;;4984149;28;20088;-61
2022/06/29 10:30:15;;;;;;;12.07;9.85;;;;;;;;;;4986327;28;20456;-62
2022/06/29 10:32:40;;;;;;;10.50;9.25;;;;;;;;;;4983847;28;20109;-62
2022/06/29 10:35:06;;;;;;;9.13;8.45;;;;;;;;;;4982627;28;20039;-61
2022/06/29 10:37:32;;;;;;;9.98;8.98;;;;;;;;;;4982048;28;20070;-64
2022/06/29 10:40:00;;;;;;;10.65;8.05;;;;;;;;;;4999613;28;20443;-61
2022/06/29 10:45:11;;;;;;;9.55;8.65;;;;;;;;;;4984685;28;20041;-61
2022/06/29 10:47:36;;;;;;;9.73;8.30;;;;;;;;;;4985608;28;20030;-62
2022/06/29 10:50:14;;;;;;;16.58;13.50;;;;;;;;;;4982488;28;20770;-62
2022/06/29 10:52:39;;;;;;;8.88;8.07;;;;;;;;;;4982016;28;20547;-62
2022/06/29 10:55:05;;;;;;;7.85;7.20;;;;;;;;;;4996553;28;20079;-61
2022/06/29 10:57:34;;;;;;;10.48;7.45;;;;;;;;;;5000129;28;20037;-62
2022/06/29 10:59:59;;;;;;;8.10;7.43;;;;;;;;;;4984485;28;20030;-62
2022/06/29 11:02:24;;;;;;;7.47;6.78;;;;;;;;;;4982836;28;20037;-62
2022/06/29 11:04:50;;;;;;;7.63;6.93;;;;;;;;;;4983577;28;20135;-61
2022/06/29 11:12:50;;;;;;;7.03;6.53;;;;;;;;;;4984949;28;20640;-61
2022/06/29 11:15:48;;;;;;;6.88;6.38;;;;;;;;;;4985041;28;20027;-61
2022/06/29 11:18:32;;;;;;;7.72;7.22;;;;;;;;;;4985250;28;20065;-62
2022/06/29 11:21:04;;;;;;;7.28;6.68;;;;;;;;;;4982541;28;20934;-62
2022/06/29 11:23:34;;;;;;;7.70;7.10;;;;;;;;;;4984055;28;20038;-61
2022/06/29 11:26:00;;;;;;;6.75;6.00;;;;;;;;;;4979002;28;20116;-62
2022/06/29 11:28:27;;;;;;;9.07;6.55;;;;;;;;;;4983978;28;20425;-64
2022/06/29 11:31:04;;;;;;;10.30;7.70;;;;;;;;;;4983911;28;20044;-63
2022/06/29 11:33:33;;;;;;;7.32;6.38;;;;;;;;;;4983485;28;20029;-62
2022/06/29 11:36:06;;;;;;;6.57;6.03;;;;;;;;;;4983049;28;20062;-62
2022/06/29 11:38:32;;;;;;;8.45;6.97;;;;;;;;;;4973880;28;20072;-63
2022/06/29 11:40:57;;;;;;;7.43;6.72;;;;;;;;;;4983862;28;20388;-63
2022/06/29 11:43:22;;;;;;;6.80;6.30;;;;;;;;;;4982216;28;20618;-63
2022/06/29 11:45:52;;;;;;;6.88;6.28;;;;;;;;;;4982832;28;20584;-61
2022/06/29 11:48:21;;;;;;;7.93;7.10;;;;;;;;;;4983203;28;20041;-63
2022/06/29 11:50:53;;;;;;;7.57;6.88;;;;;;;;;;4983531;28;20113;-62
2022/06/29 11:53:38;;;;;;;7.97;6.30;;;;;;;;;;4982514;28;20026;-64
2022/06/29 11:56:03;;;;;;;;;;;;;;;;;;4981644;28;20038;-61
2022/06/29 11:58:28;;;;;;;7.70;6.80;;;;;;;;;;4980702;28;19960;-62
2022/06/29 12:00:54;;;;;;;10.43;7.10;;;;;;;;;;4982277;28;20488;-62
2022/06/29 12:03:19;;;;;;;9.48;6.85;;;;;;;;;;4980731;28;20564;-63
2022/06/29 12:05:55;;;;;;;12.80;6.90;;;;;;;;;;4981843;28;20054;-61
2022/06/29 12:08:20;;;;;;;8.63;6.57;;;;;;;;;;4982946;28;20137;-62
2022/06/29 12:10:45;;;;;;;8.02;7.22;;;;;;;;;;4982175;28;20481;-61
2022/06/29 12:13:11;;;;;;;8.05;7.25;;;;;;;;;;4979826;28;20421;-61
2022/06/29 12:15:37;;;;;;;7.88;6.50;;;;;;;;;;4980293;28;20030;-61
2022/06/29 12:18:02;;;;;;;6.78;6.07;;;;;;;;;;4980094;28;20030;-62
2022/06/29 12:20:28;;;;;;;8.23;6.38;;;;;;;;;;4979271;28;20132;-64
2022/06/29 12:22:53;;;;;;;9.45;6.47;;;;;;;;;;4982250;28;20704;-62
2022/06/29 12:25:22;;;;;;;7.25;6.70;;;;;;;;;;4981000;28;20033;-63
2022/06/29 12:27:47;;;;;;;7.15;6.65;;;;;;;;;;4979634;28;20614;-63
2022/06/29 12:30:12;;;;;;;8.13;6.68;;;;;;;;;;4981817;28;20038;-62
2022/06/29 12:32:38;;;;;;;7.57;6.88;;;;;;;;;;4982072;28;20037;-61
2022/06/29 12:35:03;;;;;;;7.28;6.78;;;;;;;;;;4980674;28;20034;-66
2022/06/29 12:37:28;;;;;;;6.72;6.25;;;;;;;;;;4979675;28;20026;-65
2022/06/29 12:39:54;;;;;;;8.27;7.70;;;;;;;;;;4982160;28;20038;-65
2022/06/29 12:42:21;;;;;;;7.47;6.25;;;;;;;;;;4980011;28;20096;-75
2022/06/29 12:44:46;;;;;;;6.70;6.10;;;;;;;;;;4980290;28;20169;-66
2022/06/29 12:47:11;;;;;;;8.20;6.63;;;;;;;;;;4980092;28;20105;-67
2022/06/29 12:49:37;;;;;;;7.43;5.60;;;;;;;;;;4978914;28;20567;-63
2022/06/29 12:52:02;;;;;;;6.10;5.50;;;;;;;;;;4979889;28;20030;-63
2022/06/29 12:54:27;;;;;;;7.00;6.00;;;;;;;;;;4979837;28;20149;-63
2022/06/29 12:56:52;;;;;;;6.13;5.60;;;;;;;;;;4980132;28;20662;-64
2022/06/29 12:59:19;;;;;;;6.38;5.38;;;;;;;;;;4981870;28;20381;-62
2022/06/29 13:01:44;;;;;;;8.73;6.32;;;;;;;;;;4981340;28;20548;-62
2022/06/29 13:04:09;;;;;;;6.80;6.15;;;;;;;;;;4969359;28;20030;-62
2022/06/29 13:06:34;;;;;;;6.32;5.95;;;;;;;;;;4980283;28;20153;-63
2022/06/29 13:09:01;;;;;;;6.40;5.90;;;;;;;;;;4997051;28;20058;-61
2022/06/29 13:11:27;;;;;;;7.05;6.40;;;;;;;;;;4981618;28;20571;-61
2022/06/29 13:13:52;;;;;;;6.45;5.95;;;;;;;;;;4979346;28;20038;-61
2022/06/29 13:16:18;;;;;;;7.90;6.38;;;;;;;;;;4995502;28;20457;-61
2022/06/29 13:18:43;;;;;;;7.20;6.50;;;;;;;;;;4984284;28;20046;-61
2022/06/29 13:21:09;;;;;;;6.68;5.95;;;;;;;;;;4984609;28;20037;-61
2022/06/29 13:23:34;;;;;;;6.18;5.78;;;;;;;;;;4981803;28;20027;-60
2022/06/29 13:25:59;;;;;;;6.97;6.30;;;;;;;;;;4984254;28;20645;-61
2022/06/29 13:28:27;;;;;;;6.15;5.50;;;;;;;;;;4985744;28;20034;-60
2022/06/29 13:30:52;;;;;;;5.85;5.45;;;;;;;;;;4983862;28;20025;-59
2022/06/29 13:33:18;;;;;;;6.53;6.03;;;;;;;;;;4982805;28;20034;-58
2022/06/29 13:35:45;;;;;;;6.35;5.78;;;;;;;;;;4984223;28;20057;-59
2022/06/29 13:38:13;;;;;;;6.38;5.88;;;;;;;;;;4986289;28;20542;-60
2022/06/29 13:40:38;;;;;;;5.75;5.25;;;;;;;;;;4983251;28;20408;-59
2022/06/29 13:43:03;;;;;;;6.80;6.30;;;;;;;;;;4983234;28;20034;-59
2022/06/29 13:45:29;;;;;;;7.43;6.37;;;;;;;;;;4983119;28;20026;-60
2022/06/29 13:47:54;;;;;;;6.90;6.35;;;;;;;;;;5000446;28;20635;-58
2022/06/29 13:50:19;;;;;;;6.55;5.93;;;;;;;;;;4983780;28;20027;-60
2022/06/29 13:52:44;;;;;;;7.30;5.90;;;;;;;;;;4982849;28;20140;-59
2022/06/29 13:55:10;;;;;;;5.88;5.35;;;;;;;;;;4985765;28;20891;-59
2022/06/29 13:57:35;;;;;;;6.90;5.72;;;;;;;;;;4985544;28;20598;-59
2022/06/29 14:00:00;;;;;;;6.85;6.20;;;;;;;;;;4997278;28;20666;-58
2022/06/29 14:02:26;;;;;;;8.65;5.63;;;;;;;;;;4983170;28;20365;-58
2022/06/29 14:04:51;;;;;;;5.83;5.33;;;;;;;;;;4984950;28;20029;-59
2022/06/29 14:07:16;;;;;;;6.90;5.95;;;;;;;;;;4985368;28;20257;-61
2022/06/29 14:09:41;;;;;;;6.63;6.10;;;;;;;;;;4980009;28;20054;-61
2022/06/29 14:12:07;;;;;;;5.78;5.38;;;;;;;;;;4982985;28;20435;-61
2022/06/29 14:14:32;;;;;;;5.90;5.47;;;;;;;;;;4985040;28;20113;-61
2022/06/29 14:16:57;;;;;;;6.38;5.75;;;;;;;;;;4984461;28;20177;-63
2022/06/29 14:19:23;;;;;;;6.15;5.30;;;;;;;;;;4981963;28;20042;-62
2022/06/29 14:21:48;;;;;;;5.53;5.13;;;;;;;;;;4998149;28;20030;-65
2022/06/29 14:24:14;;;;;;;5.10;4.55;;;;;;;;;;4984808;28;20026;-65
2022/06/29 14:26:40;;;;;;;5.93;5.35;;;;;;;;;;4973985;28;20118;-68
2022/06/29 14:29:05;;;;;;;8.25;5.15;;;;;;;;;;4979996;28;20122;-63
2022/06/29 14:31:31;;;;;;;6.03;5.47;;;;;;;;;;4982408;28;20029;-68
2022/06/29 14:33:56;;;;;;;15.77;5.15;;;;;;;;;;4984291;28;20388;-68
2022/06/29 14:36:21;;;;;;;5.55;5.05;;;;;;;;;;4982488;28;20044;-67
2022/06/29 14:38:46;;;;;;;6.88;6.18;;;;;;;;;;4981929;28;20554;-64
2022/06/29 14:41:12;;;;;;;5.05;4.53;;;;;;;;;;4981814;28;20034;-65